サイパン島 の空港の天気 - METARとTAF

サイパン国際空港 ( PGSN / SPN ) - 北マリアナ諸島 サイパン島
飛行場実況気象(Metar)
観測時間12/18 18:54 ChST (12/18 08:54 UTC)
風向・風速東 9m/s 瞬間風速13m/s
視程10km以上
天気現象
全天の4割程度の雲 雲底高度 790m
気温28.3℃
湿度77%
気圧1013.6hPa
METARPGSN 180854Z 08018G25KT 10SM SCT026 28/24 A2987 RMK AO2 PK WND 07027/0822 SLP136 T02830239 53012 $
過去の天気等 Google飛行場航空写真 Wunderground天気予報

過去48時間のMETAR

飛行場予報(TAF)
発表時間: 12/18 15:28 ChST (12/18 05:28 UTC)
予報対象時間: 18日16時 ChST ~ 19日16時 ChST
風向・風速東北東 8m/s 瞬間風速 13m/s
視程10km以上
天気現象周辺でしゅう雨
少しの雲 雲底高度 460m
全天の4割程度の雲 雲底高度 760m
18日16時 ChST ~ 18日20時 ChST に一時的に
視程6,440m
天気現象しゅう雨
全天の4割程度の雲 雲底高度 460m
全天を覆う雲 雲底高度 760m
TAF PGSN 180528Z 1806/1906 07015G25KT P6SM VCSH FEW015 SCT025
TEMPO 1806/1810 4SM SHRA SCT015 OVC025